Time;durP1;ratioP1;P1;durP2;ratioP2;P2;SDS_P1;SDS_P2;PMS_P1;PMS_P2;Temp;Humidity;BMP_temperature;BMP_pressure;BME280_temperature;BME280_humidity;BME280_pressure;Samples;Min_cycle;Max_cycle;Signal;HPM_P1;HPM_P2
2024/01/23 00:00:55;;;;;;;28.38;26.27;;;;;;;;;;5049520;28;20040;-53
2024/01/23 00:03:25;;;;;;;28.52;26.42;;;;;;;;;;5049318;28;20036;-50
2024/01/23 00:05:51;;;;;;;30.10;27.40;;;;;;;;;;5049580;28;20497;-50
2024/01/23 00:08:17;;;;;;;31.83;28.98;;;;;;;;;;5048251;28;20025;-52
2024/01/23 00:10:43;;;;;;;28.30;26.10;;;;;;;;;;5048306;28;20043;-50
2024/01/23 00:13:09;;;;;;;30.23;27.77;;;;;;;;;;5049132;28;20111;-48
2024/01/23 00:15:36;;;;;;;23.75;21.45;;;;;;;;;;5050022;28;20052;-48
2024/01/23 00:18:02;;;;;;;19.40;16.85;;;;;;;;;;5050066;28;20037;-52
2024/01/23 00:20:28;;;;;;;15.10;13.00;;;;;;;;;;5049658;28;20475;-54
2024/01/23 00:22:55;;;;;;;16.00;11.63;;;;;;;;;;5049293;28;20057;-47
2024/01/23 00:25:21;;;;;;;14.80;11.00;;;;;;;;;;5049801;28;20091;-50
2024/01/23 00:27:47;;;;;;;14.73;10.80;;;;;;;;;;5049421;28;20025;-52
2024/01/23 00:30:14;;;;;;;19.08;11.25;;;;;;;;;;5049513;28;20108;-52
2024/01/23 00:32:40;;;;;;;15.07;11.25;;;;;;;;;;5048866;28;20375;-50
2024/01/23 00:35:06;;;;;;;14.80;10.55;;;;;;;;;;5049410;28;20035;-50
2024/01/23 00:37:33;;;;;;;17.75;10.35;;;;;;;;;;5052936;28;20035;-50
2024/01/23 00:40:01;;;;;;;14.68;10.05;;;;;;;;;;5051915;28;20033;-49
2024/01/23 00:42:26;;;;;;;20.63;12.48;;;;;;;;;;5056005;28;20444;-50
2024/01/23 00:44:55;;;;;;;13.82;9.20;;;;;;;;;;5073102;28;20024;-53
2024/01/23 00:47:21;;;;;;;13.77;9.15;;;;;;;;;;5071915;28;20579;-50
2024/01/23 00:49:47;;;;;;;13.90;9.30;;;;;;;;;;5103948;22;20056;-61
2024/01/23 00:52:13;;;;;;;13.60;8.88;;;;;;;;;;5090861;28;20028;-57
2024/01/23 00:54:39;;;;;;;19.17;17.38;;;;;;;;;;5081671;28;20027;-60
2024/01/23 00:57:06;;;;;;;19.73;17.92;;;;;;;;;;5071265;28;20037;-59
2024/01/23 00:59:32;;;;;;;19.92;18.13;;;;;;;;;;5072567;28;20070;-57
2024/01/23 01:01:58;;;;;;;24.20;22.13;;;;;;;;;;5063747;28;20032;-57
2024/01/23 01:04:24;;;;;;;24.55;22.35;;;;;;;;;;5070586;28;20056;-58
2024/01/23 01:06:50;;;;;;;24.00;21.90;;;;;;;;;;5071673;28;20027;-60
2024/01/23 01:09:16;;;;;;;22.67;20.77;;;;;;;;;;5061090;28;20395;-59
2024/01/23 01:11:42;;;;;;;23.45;21.30;;;;;;;;;;5051973;28;20033;-61
2024/01/23 01:14:08;;;;;;;22.08;19.98;;;;;;;;;;5048186;28;20060;-60
2024/01/23 01:16:34;;;;;;;18.45;16.65;;;;;;;;;;5045021;28;20502;-57
2024/01/23 01:19:00;;;;;;;18.50;16.70;;;;;;;;;;5051761;28;20044;-57
2024/01/23 01:21:26;;;;;;;24.08;19.02;;;;;;;;;;5033447;28;20459;-59
2024/01/23 01:23:52;;;;;;;17.67;15.48;;;;;;;;;;5052007;28;20084;-56
2024/01/23 01:26:18;;;;;;;17.77;13.95;;;;;;;;;;5051617;28;20033;-57
2024/01/23 01:28:44;;;;;;;15.73;13.60;;;;;;;;;;5051807;28;20079;-60
2024/01/23 01:31:10;;;;;;;15.13;12.98;;;;;;;;;;5033202;28;20568;-57
2024/01/23 01:33:36;;;;;;;15.00;12.77;;;;;;;;;;5051831;28;20025;-57
2024/01/23 01:36:03;;;;;;;16.75;13.27;;;;;;;;;;5051874;28;20053;-57
2024/01/23 01:38:29;;;;;;;19.38;12.88;;;;;;;;;;5051904;28;20033;-58
2024/01/23 01:40:57;;;;;;;14.40;11.10;;;;;;;;;;5051254;28;20036;-55
2024/01/23 01:43:24;;;;;;;15.52;11.70;;;;;;;;;;5051085;28;20025;-56
2024/01/23 01:45:59;;;;;;;16.98;11.10;;;;;;;;;;5051655;28;20080;-57
2024/01/23 01:48:26;;;;;;;22.33;11.40;;;;;;;;;;5050620;28;20066;-54
2024/01/23 01:50:52;;;;;;;14.27;10.57;;;;;;;;;;5033041;28;20037;-57
2024/01/23 01:53:18;;;;;;;14.60;10.27;;;;;;;;;;5054687;28;20267;-57
2024/01/23 01:55:44;;;;;;;13.85;9.43;;;;;;;;;;5065994;28;20033;-57
2024/01/23 01:58:12;;;;;;;18.05;8.95;;;;;;;;;;5071940;28;20073;-56
2024/01/23 02:00:38;;;;;;;24.67;11.43;;;;;;;;;;5054064;28;20104;-58
2024/01/23 02:03:04;;;;;;;19.88;10.10;;;;;;;;;;5055678;28;20036;-56
2024/01/23 02:05:30;;;;;;;14.20;8.50;;;;;;;;;;5052816;28;20068;-57
2024/01/23 02:07:56;;;;;;;13.48;8.13;;;;;;;;;;5070826;28;20044;-58
2024/01/23 02:10:22;;;;;;;13.77;8.85;;;;;;;;;;5070552;28;20579;-59
2024/01/23 02:12:49;;;;;;;17.90;9.90;;;;;;;;;;5051818;28;20052;-57
2024/01/23 02:15:15;;;;;;;13.70;8.30;;;;;;;;;;5070507;28;20104;-58
2024/01/23 02:17:40;;;;;;;16.70;8.85;;;;;;;;;;5052793;28;20445;-57
2024/01/23 02:20:07;;;;;;;13.23;8.02;;;;;;;;;;5070535;28;20103;-56
2024/01/23 02:22:33;;;;;;;13.75;8.25;;;;;;;;;;5069576;28;20028;-57
2024/01/23 02:24:59;;;;;;;16.80;9.02;;;;;;;;;;5066642;28;20025;-56
2024/01/23 02:27:25;;;;;;;19.67;8.23;;;;;;;;;;5058882;28;20493;-57
2024/01/23 02:29:51;;;;;;;13.18;7.78;;;;;;;;;;5070465;28;20021;-58
2024/01/23 02:32:17;;;;;;;13.40;7.85;;;;;;;;;;5069996;28;20036;-57
2024/01/23 02:34:44;;;;;;;15.55;8.30;;;;;;;;;;5070639;28;20035;-58
2024/01/23 02:37:10;;;;;;;21.58;8.90;;;;;;;;;;5070446;28;20085;-58
2024/01/23 02:39:36;;;;;;;13.60;8.20;;;;;;;;;;5052349;28;20118;-55
2024/01/23 02:42:02;;;;;;;12.70;7.50;;;;;;;;;;5069601;28;20028;-58
2024/01/23 02:44:28;;;;;;;13.32;8.40;;;;;;;;;;5070440;28;20060;-55
2024/01/23 02:46:54;;;;;;;15.10;7.50;;;;;;;;;;5070257;28;20064;-57
2024/01/23 02:49:20;;;;;;;13.50;7.93;;;;;;;;;;5070304;28;20082;-55
2024/01/23 02:51:46;;;;;;;13.57;8.60;;;;;;;;;;5069604;28;20017;-58
2024/01/23 02:54:12;;;;;;;12.90;7.63;;;;;;;;;;5070183;28;20021;-58
2024/01/23 02:56:39;;;;;;;12.57;7.72;;;;;;;;;;5070123;28;20045;-59
2024/01/23 02:59:05;;;;;;;12.25;7.10;;;;;;;;;;5051985;28;20032;-57
2024/01/23 03:01:31;;;;;;;14.32;7.93;;;;;;;;;;5051528;28;20032;-58
2024/01/23 03:03:57;;;;;;;14.40;7.57;;;;;;;;;;5069955;28;20032;-59
2024/01/23 03:06:23;;;;;;;12.40;7.40;;;;;;;;;;5069906;28;20062;-54
2024/01/23 03:08:49;;;;;;;13.98;8.52;;;;;;;;;;5051971;28;20058;-56
2024/01/23 03:11:15;;;;;;;20.52;8.30;;;;;;;;;;5051299;28;20103;-58
2024/01/23 03:13:41;;;;;;;11.90;6.90;;;;;;;;;;5052288;28;20086;-58
2024/01/23 03:16:07;;;;;;;13.18;7.55;;;;;;;;;;5070179;28;20032;-55
2024/01/23 03:18:33;;;;;;;10.50;6.20;;;;;;;;;;5069921;28;20070;-54
2024/01/23 03:20:59;;;;;;;11.73;8.15;;;;;;;;;;5051657;28;20025;-55
2024/01/23 03:23:25;;;;;;;10.63;6.20;;;;;;;;;;5069340;28;20020;-55
2024/01/23 03:25:51;;;;;;;19.55;6.82;;;;;;;;;;5051818;28;20402;-54
2024/01/23 03:28:17;;;;;;;11.25;7.03;;;;;;;;;;5069690;28;20060;-55
2024/01/23 03:30:43;;;;;;;11.50;6.05;;;;;;;;;;5069420;28;20021;-62
2024/01/23 03:33:09;;;;;;;9.48;5.60;;;;;;;;;;5069029;28;20363;-59
2024/01/23 03:35:35;;;;;;;16.50;8.55;;;;;;;;;;5069365;28;20069;-56
2024/01/23 03:38:01;;;;;;;10.50;6.30;;;;;;;;;;5069458;28;20036;-58
2024/01/23 03:40:27;;;;;;;14.05;7.90;;;;;;;;;;5051079;28;20059;-56
2024/01/23 03:42:53;;;;;;;11.00;7.20;;;;;;;;;;5050579;28;20060;-56
2024/01/23 03:45:19;;;;;;;11.27;6.20;;;;;;;;;;5069328;28;20036;-56
2024/01/23 03:47:45;;;;;;;10.18;5.97;;;;;;;;;;5069132;28;20035;-58
2024/01/23 03:50:11;;;;;;;11.48;6.78;;;;;;;;;;5051172;28;20127;-59
2024/01/23 03:52:37;;;;;;;15.18;8.48;;;;;;;;;;5068494;28;20056;-61
2024/01/23 03:55:03;;;;;;;14.63;6.70;;;;;;;;;;5069230;28;20470;-57
2024/01/23 03:57:29;;;;;;;17.83;6.65;;;;;;;;;;5069545;28;20025;-58
2024/01/23 03:59:56;;;;;;;11.80;7.15;;;;;;;;;;5069453;28;20101;-55
2024/01/23 04:02:25;;;;;;;11.80;6.68;;;;;;;;;;5068490;28;20570;-56
2024/01/23 04:04:51;;;;;;;12.05;6.63;;;;;;;;;;5051234;28;20025;-55
2024/01/23 04:07:16;;;;;;;14.27;7.25;;;;;;;;;;5069294;28;20105;-56
2024/01/23 04:09:42;;;;;;;16.48;7.97;;;;;;;;;;5069027;28;20017;-55
2024/01/23 04:12:08;;;;;;;14.60;7.53;;;;;;;;;;5067714;28;20638;-58
2024/01/23 04:14:34;;;;;;;10.95;6.45;;;;;;;;;;5068943;28;20021;-57
2024/01/23 04:17:00;;;;;;;15.50;7.90;;;;;;;;;;5068867;28;20027;-55
2024/01/23 04:19:26;;;;;;;12.38;7.00;;;;;;;;;;5068985;28;20375;-57
2024/01/23 04:21:52;;;;;;;11.40;6.68;;;;;;;;;;5049966;28;20025;-58
2024/01/23 04:24:18;;;;;;;11.55;6.72;;;;;;;;;;5068715;28;20133;-57
2024/01/23 04:26:47;;;;;;;11.80;6.80;;;;;;;;;;5068701;28;20051;-56
2024/01/23 04:29:13;;;;;;;22.52;6.80;;;;;;;;;;5068793;28;20094;-58
2024/01/23 04:31:39;;;;;;;13.35;7.53;;;;;;;;;;5068020;28;20032;-57
2024/01/23 04:34:05;;;;;;;15.00;7.30;;;;;;;;;;5068623;28;20115;-58
2024/01/23 04:36:31;;;;;;;19.95;7.60;;;;;;;;;;5050782;28;20478;-58
2024/01/23 04:38:57;;;;;;;12.80;7.78;;;;;;;;;;5068739;28;20107;-55
2024/01/23 04:41:24;;;;;;;14.98;8.40;;;;;;;;;;5068314;28;20024;-57
2024/01/23 04:43:50;;;;;;;13.05;7.47;;;;;;;;;;5068986;28;20103;-62
2024/01/23 04:46:16;;;;;;;12.25;6.93;;;;;;;;;;5069020;28;20543;-57
2024/01/23 04:48:42;;;;;;;12.10;7.15;;;;;;;;;;5068618;28;20028;-53
2024/01/23 04:51:09;;;;;;;11.50;7.10;;;;;;;;;;5067763;28;20098;-56
2024/01/23 04:53:35;;;;;;;11.82;7.20;;;;;;;;;;5068760;28;20047;-56
2024/01/23 04:56:01;;;;;;;11.30;6.60;;;;;;;;;;5068608;28;20020;-58
2024/01/23 04:58:27;;;;;;;17.73;8.13;;;;;;;;;;5050176;28;20024;-62
2024/01/23 05:00:53;;;;;;;12.05;7.05;;;;;;;;;;5050134;28;20028;-59
2024/01/23 05:03:19;;;;;;;12.73;7.40;;;;;;;;;;5068118;28;20028;-58
2024/01/23 05:05:45;;;;;;;22.15;8.05;;;;;;;;;;5068524;28;20028;-57
2024/01/23 05:08:11;;;;;;;31.55;8.15;;;;;;;;;;5068837;28;20028;-58
2024/01/23 05:10:38;;;;;;;15.00;7.63;;;;;;;;;;5067015;28;20039;-59
2024/01/23 05:13:04;;;;;;;13.07;8.05;;;;;;;;;;5057316;28;20021;-54
2024/01/23 05:15:30;;;;;;;21.55;9.57;;;;;;;;;;5051111;28;20021;-58
2024/01/23 05:17:56;;;;;;;12.00;7.00;;;;;;;;;;5048451;28;20020;-57
2024/01/23 05:20:22;;;;;;;17.58;7.70;;;;;;;;;;5030463;28;20064;-56
2024/01/23 05:22:48;;;;;;;18.98;7.47;;;;;;;;;;5048548;28;20017;-55
2024/01/23 05:25:14;;;;;;;16.20;8.23;;;;;;;;;;5052063;28;20102;-57
2024/01/23 05:27:40;;;;;;;14.23;7.60;;;;;;;;;;5062853;28;20099;-58
2024/01/23 05:30:07;;;;;;;12.40;7.20;;;;;;;;;;5071481;28;20091;-59
2024/01/23 05:32:33;;;;;;;12.68;7.50;;;;;;;;;;5070909;28;20059;-54
2024/01/23 05:35:03;;;;;;;11.93;6.97;;;;;;;;;;5071494;28;20020;-57
2024/01/23 05:37:29;;;;;;;24.33;8.02;;;;;;;;;;5071351;28;20485;-52
2024/01/23 05:39:55;;;;;;;14.77;8.27;;;;;;;;;;5071062;28;20028;-53
2024/01/23 05:42:21;;;;;;;11.75;6.82;;;;;;;;;;5070503;28;20497;-55
2024/01/23 05:44:47;;;;;;;28.98;11.32;;;;;;;;;;5071183;28;20032;-59
2024/01/23 05:47:13;;;;;;;13.60;8.07;;;;;;;;;;5053149;28;20026;-60
2024/01/23 05:49:39;;;;;;;13.75;8.05;;;;;;;;;;5071017;28;20076;-58
2024/01/23 05:52:05;;;;;;;12.10;7.30;;;;;;;;;;5052793;28;20024;-60
2024/01/23 05:54:31;;;;;;;11.35;6.70;;;;;;;;;;5070896;28;20024;-57
2024/01/23 05:56:57;;;;;;;13.82;8.13;;;;;;;;;;5053078;28;20401;-60
2024/01/23 05:59:23;;;;;;;21.55;8.35;;;;;;;;;;5070932;28;20040;-60
2024/01/23 06:01:49;;;;;;;18.52;9.38;;;;;;;;;;5070102;28;20440;-56
2024/01/23 06:04:15;;;;;;;17.85;8.80;;;;;;;;;;5070870;28;20107;-55
2024/01/23 06:06:44;;;;;;;40.28;9.65;;;;;;;;;;5052440;28;20081;-56
2024/01/23 06:09:10;;;;;;;12.93;7.63;;;;;;;;;;5071264;28;20096;-55
2024/01/23 06:11:37;;;;;;;12.88;7.50;;;;;;;;;;5043916;28;20024;-59
2024/01/23 06:14:03;;;;;;;13.90;8.55;;;;;;;;;;5064355;28;20102;-59
2024/01/23 06:16:29;;;;;;;12.60;7.88;;;;;;;;;;5070956;28;20490;-61
2024/01/23 06:18:55;;;;;;;12.80;7.50;;;;;;;;;;5071099;28;20031;-59
2024/01/23 06:21:21;;;;;;;13.68;8.07;;;;;;;;;;5071007;28;20502;-55
2024/01/23 06:23:48;;;;;;;14.13;7.72;;;;;;;;;;5072668;28;20035;-57
2024/01/23 06:26:14;;;;;;;12.50;7.40;;;;;;;;;;5070953;28;20071;-59
2024/01/23 06:28:40;;;;;;;27.10;7.78;;;;;;;;;;5052406;28;20037;-55
2024/01/23 06:31:06;;;;;;;12.85;7.80;;;;;;;;;;5070471;28;20069;-51
2024/01/23 06:33:32;;;;;;;19.02;8.05;;;;;;;;;;5070406;28;20080;-56
2024/01/23 06:35:58;;;;;;;12.77;7.35;;;;;;;;;;5071116;28;20040;-58
2024/01/23 06:38:23;;;;;;;13.95;7.80;;;;;;;;;;5071086;28;20052;-53
2024/01/23 06:40:49;;;;;;;12.20;7.20;;;;;;;;;;5070261;28;20096;-57
2024/01/23 06:43:15;;;;;;;12.73;7.65;;;;;;;;;;5070305;28;20490;-55
2024/01/23 06:45:41;;;;;;;19.88;9.38;;;;;;;;;;5070526;28;20068;-54
2024/01/23 06:48:07;;;;;;;15.88;8.23;;;;;;;;;;5070995;28;20029;-58
2024/01/23 06:50:33;;;;;;;13.98;8.02;;;;;;;;;;5064851;22;20041;-48
2024/01/23 06:52:59;;;;;;;16.10;8.05;;;;;;;;;;5030814;28;20022;-52
2024/01/23 06:55:25;;;;;;;14.00;8.10;;;;;;;;;;5030072;28;20033;-53
2024/01/23 06:57:51;;;;;;;11.82;6.90;;;;;;;;;;5026681;28;20028;-52
2024/01/23 07:00:17;;;;;;;12.75;7.15;;;;;;;;;;5031380;28;20021;-52
2024/01/23 07:02:43;;;;;;;11.20;6.60;;;;;;;;;;5030443;28;20515;-50
2024/01/23 07:05:09;;;;;;;11.57;6.78;;;;;;;;;;5031360;28;20025;-55
2024/01/23 07:07:35;;;;;;;20.75;8.52;;;;;;;;;;5028693;28;20443;-51
2024/01/23 07:10:02;;;;;;;13.65;8.48;;;;;;;;;;5042829;28;20021;-53
2024/01/23 07:12:28;;;;;;;13.15;7.68;;;;;;;;;;5034900;28;20063;-52
2024/01/23 07:14:54;;;;;;;15.18;7.88;;;;;;;;;;5029448;28;20056;-50
2024/01/23 07:17:21;;;;;;;11.20;6.60;;;;;;;;;;5030767;28;20022;-49
2024/01/23 07:19:47;;;;;;;12.25;7.00;;;;;;;;;;5030856;28;20036;-52
2024/01/23 07:22:13;;;;;;;11.68;6.80;;;;;;;;;;5042147;28;20014;-49
2024/01/23 07:24:39;;;;;;;16.33;7.70;;;;;;;;;;5029328;28;20460;-52
2024/01/23 07:27:05;;;;;;;14.52;9.80;;;;;;;;;;5030316;28;20075;-53
2024/01/23 07:29:31;;;;;;;13.43;8.93;;;;;;;;;;5030701;28;20014;-49
2024/01/23 07:31:57;;;;;;;13.38;8.13;;;;;;;;;;5030156;28;20120;-48
2024/01/23 07:34:23;;;;;;;15.13;7.60;;;;;;;;;;5031186;28;20197;-53
2024/01/23 07:36:49;;;;;;;23.35;7.20;;;;;;;;;;5030597;28;20075;-53
2024/01/23 07:39:15;;;;;;;11.60;6.82;;;;;;;;;;5030312;28;20029;-50
2024/01/23 07:41:43;;;;;;;12.35;7.93;;;;;;;;;;5026697;28;20060;-48
2024/01/23 07:44:09;;;;;;;11.68;6.78;;;;;;;;;;5030238;28;20606;-50
2024/01/23 07:46:35;;;;;;;12.77;7.32;;;;;;;;;;5022207;28;20105;-48
2024/01/23 07:49:01;;;;;;;14.25;8.07;;;;;;;;;;5010607;28;20052;-45
2024/01/23 07:51:28;;;;;;;13.13;6.88;;;;;;;;;;5027412;28;20034;-50
2024/01/23 07:53:54;;;;;;;13.00;6.80;;;;;;;;;;5030493;28;20022;-50
2024/01/23 07:56:20;;;;;;;11.40;6.60;;;;;;;;;;5026268;28;20052;-53
2024/01/23 07:58:46;;;;;;;18.77;7.78;;;;;;;;;;5058404;28;20016;-52
2024/01/23 08:01:12;;;;;;;12.15;7.93;;;;;;;;;;5028584;28;20110;-53
2024/01/23 08:03:38;;;;;;;11.52;6.70;;;;;;;;;;5030572;28;20084;-48
2024/01/23 08:06:04;;;;;;;10.88;6.95;;;;;;;;;;5030055;28;20063;-51
2024/01/23 08:08:30;;;;;;;15.05;7.55;;;;;;;;;;5030190;28;20029;-50
2024/01/23 08:10:56;;;;;;;10.55;6.18;;;;;;;;;;5029894;28;20033;-51
2024/01/23 08:13:23;;;;;;;11.27;6.57;;;;;;;;;;5029605;28;20036;-55
2024/01/23 08:15:49;;;;;;;12.00;7.72;;;;;;;;;;5037284;28;20402;-52
2024/01/23 08:18:15;;;;;;;11.10;6.60;;;;;;;;;;5049516;28;20025;-49
2024/01/23 08:20:41;;;;;;;12.13;7.10;;;;;;;;;;5064844;28;20029;-53
2024/01/23 08:23:07;;;;;;;10.82;6.43;;;;;;;;;;5064701;28;20027;-52
2024/01/23 08:25:34;;;;;;;11.18;6.40;;;;;;;;;;5049390;28;20474;-54
2024/01/23 08:28:00;;;;;;;11.38;6.60;;;;;;;;;;5049882;28;20551;-51
2024/01/23 08:30:26;;;;;;;11.18;6.40;;;;;;;;;;5049545;28;20075;-53
2024/01/23 08:32:52;;;;;;;12.68;6.95;;;;;;;;;;5048904;28;20024;-57
2024/01/23 08:35:18;;;;;;;11.73;6.47;;;;;;;;;;5065170;28;20051;-56
2024/01/23 08:37:44;;;;;;;12.73;6.53;;;;;;;;;;5049696;28;20040;-55
2024/01/23 08:40:10;;;;;;;11.02;6.50;;;;;;;;;;5049635;28;20025;-53
2024/01/23 08:42:36;;;;;;;14.20;7.93;;;;;;;;;;5029320;28;20164;-55
2024/01/23 08:45:04;;;;;;;15.93;8.02;;;;;;;;;;5009791;28;20481;-58
2024/01/23 08:47:30;;;;;;;18.20;7.13;;;;;;;;;;5009643;28;20065;-54
2024/01/23 08:49:56;;;;;;;10.60;6.40;;;;;;;;;;5009729;28;20767;-57
2024/01/23 08:52:22;;;;;;;13.80;7.50;;;;;;;;;;5007851;28;20018;-54
2024/01/23 08:54:48;;;;;;;12.35;6.68;;;;;;;;;;5010193;28;20573;-51
2024/01/23 08:57:17;;;;;;;29.98;7.60;;;;;;;;;;5011453;28;20026;-54
2024/01/23 08:59:44;;;;;;;9.23;5.45;;;;;;;;;;5013873;28;20105;-53
2024/01/23 09:02:10;;;;;;;11.88;7.20;;;;;;;;;;5011675;28;20026;-56
2024/01/23 09:04:37;;;;;;;13.07;6.72;;;;;;;;;;5013476;28;20038;-57
2024/01/23 09:07:03;;;;;;;11.25;6.53;;;;;;;;;;5013427;28;20121;-57
2024/01/23 09:09:29;;;;;;;11.65;6.50;;;;;;;;;;5013428;28;20028;-54
2024/01/23 09:11:55;;;;;;;15.85;6.30;;;;;;;;;;5012707;28;20124;-56
2024/01/23 09:14:21;;;;;;;19.77;9.02;;;;;;;;;;5013490;28;20527;-57
2024/01/23 09:16:48;;;;;;;11.13;6.00;;;;;;;;;;5032730;28;20052;-57
2024/01/23 09:19:14;;;;;;;12.63;6.80;;;;;;;;;;5068272;28;20120;-58
2024/01/23 09:21:40;;;;;;;10.98;6.93;;;;;;;;;;5052146;28;20463;-59
2024/01/23 09:24:06;;;;;;;11.63;6.93;;;;;;;;;;5068228;28;20028;-57
2024/01/23 09:26:32;;;;;;;10.80;6.20;;;;;;;;;;5052822;28;20052;-61
2024/01/23 09:28:58;;;;;;;10.15;5.85;;;;;;;;;;5052816;28;20064;-58
2024/01/23 09:31:24;;;;;;;10.70;6.30;;;;;;;;;;5052100;28;20025;-59
2024/01/23 09:33:50;;;;;;;15.25;6.88;;;;;;;;;;5052489;28;20025;-57
2024/01/23 09:36:16;;;;;;;11.85;7.88;;;;;;;;;;5052626;28;20032;-59
2024/01/23 09:38:43;;;;;;;11.85;6.60;;;;;;;;;;5052461;28;20087;-59
2024/01/23 09:41:11;;;;;;;11.52;6.68;;;;;;;;;;5067105;28;20078;-54
2024/01/23 09:43:38;;;;;;;11.30;6.47;;;;;;;;;;5045873;28;20028;-57
2024/01/23 09:46:05;;;;;;;14.00;8.35;;;;;;;;;;5032687;28;20030;-59
2024/01/23 09:48:31;;;;;;;11.02;6.40;;;;;;;;;;5032805;28;20078;-56
2024/01/23 09:50:58;;;;;;;14.07;6.82;;;;;;;;;;5047601;28;20037;-58
2024/01/23 09:53:25;;;;;;;13.38;6.70;;;;;;;;;;5032217;28;20022;-60
2024/01/23 09:55:51;;;;;;;22.65;6.70;;;;;;;;;;5032922;28;20021;-60
2024/01/23 09:58:18;;;;;;;60.97;12.73;;;;;;;;;;5052369;28;20598;-60
2024/01/23 10:00:44;;;;;;;15.77;7.47;;;;;;;;;;5067303;28;20029;-60
2024/01/23 10:03:11;;;;;;;12.68;7.78;;;;;;;;;;5051672;28;20032;-60
2024/01/23 10:05:37;;;;;;;11.75;7.38;;;;;;;;;;5052216;28;20040;-59
2024/01/23 10:08:04;;;;;;;11.13;6.50;;;;;;;;;;5067139;28;20126;-58
2024/01/23 10:10:30;;;;;;;10.90;6.35;;;;;;;;;;5066815;28;20029;-58
2024/01/23 10:12:56;;;;;;;10.80;6.40;;;;;;;;;;5051412;28;20109;-60
2024/01/23 10:15:22;;;;;;;11.10;6.50;;;;;;;;;;5067694;28;20402;-56
2024/01/23 10:17:49;;;;;;;17.50;7.45;;;;;;;;;;5052131;28;20059;-61
2024/01/23 10:20:15;;;;;;;12.00;7.65;;;;;;;;;;5030832;28;20049;-56
2024/01/23 10:22:43;;;;;;;10.75;6.30;;;;;;;;;;5030957;28;20033;-59
2024/01/23 10:25:11;;;;;;;13.55;7.40;;;;;;;;;;5030258;28;20060;-60
2024/01/23 10:27:37;;;;;;;10.70;6.20;;;;;;;;;;5031166;28;20434;-59
2024/01/23 10:30:04;;;;;;;11.50;6.82;;;;;;;;;;5043198;28;20509;-58
2024/01/23 10:32:30;;;;;;;15.55;7.05;;;;;;;;;;5050346;28;20099;-56
2024/01/23 10:34:56;;;;;;;21.67;7.32;;;;;;;;;;5051297;28;20032;-59
2024/01/23 10:37:22;;;;;;;13.68;8.55;;;;;;;;;;5066901;28;20029;-60
2024/01/23 10:39:52;;;;;;;10.45;6.10;;;;;;;;;;5066603;28;20039;-57
2024/01/23 10:42:18;;;;;;;13.45;7.53;;;;;;;;;;5050631;28;20033;-59
2024/01/23 10:44:49;;;;;;;14.02;6.70;;;;;;;;;;5050650;28;20037;-57
2024/01/23 10:47:15;;;;;;;13.43;7.47;;;;;;;;;;5029855;28;20113;-56
2024/01/23 10:49:44;;;;;;;12.85;7.43;;;;;;;;;;5030773;28;20057;-58
2024/01/23 10:52:15;;;;;;;12.82;7.22;;;;;;;;;;5030435;28;20022;-59
2024/01/23 10:54:43;;;;;;;11.55;7.00;;;;;;;;;;5031432;28;20029;-58
2024/01/23 10:57:12;;;;;;;;;;;;;;;;;;5032314;28;20339;-59
2024/01/23 10:59:39;;;;;;;10.40;6.10;;;;;;;;;;5047135;28;19975;-59
2024/01/23 11:02:20;;;;;;;28.40;8.85;;;;;;;;;;5030818;28;20569;-60
2024/01/23 11:04:46;;;;;;;12.32;6.68;;;;;;;;;;5029592;28;20032;-60
2024/01/23 11:07:16;;;;;;;15.88;6.97;;;;;;;;;;5031087;28;20026;-60
2024/01/23 11:09:48;;;;;;;10.50;6.53;;;;;;;;;;5030606;28;20027;-61
2024/01/23 11:12:28;;;;;;;11.63;6.20;;;;;;;;;;5028795;28;20025;-59
2024/01/23 11:15:00;;;;;;;10.50;6.20;;;;;;;;;;5031020;28;20021;-60
2024/01/23 11:17:31;;;;;;;11.82;6.18;;;;;;;;;;5031032;28;20033;-59
2024/01/23 11:20:08;;;;;;;10.95;6.68;;;;;;;;;;5031172;28;20030;-58
2024/01/23 11:22:35;;;;;;;11.18;7.00;;;;;;;;;;5030136;28;20087;-61
2024/01/23 11:25:01;;;;;;;9.70;5.72;;;;;;;;;;5030346;28;20029;-58
2024/01/23 11:27:28;;;;;;;20.92;8.00;;;;;;;;;;5030072;28;20109;-60
2024/01/23 11:29:56;;;;;;;11.18;7.47;;;;;;;;;;5030540;28;20394;-60
2024/01/23 11:32:32;;;;;;;11.77;5.93;;;;;;;;;;5028736;28;20017;-60
2024/01/23 11:35:02;;;;;;;9.10;5.40;;;;;;;;;;5029264;28;20137;-57
2024/01/23 11:37:47;;;;;;;10.68;6.50;;;;;;;;;;5030261;28;20057;-60
2024/01/23 11:40:29;;;;;;;14.88;6.32;;;;;;;;;;5030562;28;20025;-61
2024/01/23 11:42:56;;;;;;;20.77;7.63;;;;;;;;;;5028386;28;20104;-59
2024/01/23 11:45:29;;;;;;;10.90;6.93;;;;;;;;;;5030448;28;20021;-62
2024/01/23 11:47:59;;;;;;;11.45;7.07;;;;;;;;;;5029118;28;20205;-58
2024/01/23 11:50:26;;;;;;;28.13;6.90;;;;;;;;;;5028856;28;20108;-60
2024/01/23 11:52:53;;;;;;;13.45;6.72;;;;;;;;;;5029501;28;20491;-61
2024/01/23 11:55:20;;;;;;;13.43;7.80;;;;;;;;;;5029852;28;20029;-62
2024/01/23 11:57:50;;;;;;;9.77;5.70;;;;;;;;;;5028706;28;20025;-61
2024/01/23 12:00:16;;;;;;;9.57;5.68;;;;;;;;;;5029923;28;20056;-62
2024/01/23 12:02:43;;;;;;;10.82;6.53;;;;;;;;;;5029269;28;20387;-62
2024/01/23 12:05:09;;;;;;;10.38;6.00;;;;;;;;;;5023318;28;20048;-62
2024/01/23 12:07:37;;;;;;;12.55;7.25;;;;;;;;;;5028590;28;20041;-60
2024/01/23 12:10:10;;;;;;;17.98;7.47;;;;;;;;;;5029399;28;20017;-60
2024/01/23 12:12:37;;;;;;;12.25;6.43;;;;;;;;;;5028522;28;20075;-60
2024/01/23 12:15:06;;;;;;;16.13;6.60;;;;;;;;;;5029393;28;20036;-60
2024/01/23 12:17:35;;;;;;;11.93;6.35;;;;;;;;;;5029520;28;20434;-59
2024/01/23 12:20:09;;;;;;;15.63;7.65;;;;;;;;;;5028373;28;20491;-59
2024/01/23 12:22:38;;;;;;;10.57;6.03;;;;;;;;;;5029939;28;20458;-60
2024/01/23 12:25:05;;;;;;;9.60;5.70;;;;;;;;;;5041497;28;20017;-57
2024/01/23 12:27:31;;;;;;;9.70;5.80;;;;;;;;;;5049346;28;20021;-60
2024/01/23 12:29:58;;;;;;;10.15;6.00;;;;;;;;;;5065061;28;20079;-60
2024/01/23 12:32:28;;;;;;;10.45;6.18;;;;;;;;;;5052311;28;20059;-60
2024/01/23 12:34:54;;;;;;;10.40;6.10;;;;;;;;;;5056048;28;20013;-61
2024/01/23 12:37:23;;;;;;;11.25;6.30;;;;;;;;;;5071823;28;20394;-60
2024/01/23 12:39:49;;;;;;;10.30;6.03;;;;;;;;;;5056656;28;20028;-60
2024/01/23 12:42:16;;;;;;;11.50;6.82;;;;;;;;;;5055520;28;20056;-60
2024/01/23 12:44:42;;;;;;;9.50;5.63;;;;;;;;;;5025323;28;20041;-60
2024/01/23 12:47:08;;;;;;;10.45;6.15;;;;;;;;;;5014804;28;20029;-60
2024/01/23 12:52:17;;;;;;;10.40;6.10;;;;;;;;;;5076165;28;20408;-60
2024/01/23 12:54:43;;;;;;;12.07;6.90;;;;;;;;;;5082775;28;20163;-61
2024/01/23 12:57:12;;;;;;;13.63;8.13;;;;;;;;;;5062950;28;20127;-55
2024/01/23 12:59:42;;;;;;;12.40;7.30;;;;;;;;;;5059641;28;20031;-58
2024/01/23 13:02:08;;;;;;;12.38;7.05;;;;;;;;;;5074399;28;20024;-59
2024/01/23 13:04:34;;;;;;;11.98;7.20;;;;;;;;;;5074874;28;20050;-60
2024/01/23 13:07:01;;;;;;;12.80;7.53;;;;;;;;;;5076116;28;20501;-60
2024/01/23 13:09:27;;;;;;;13.32;7.88;;;;;;;;;;5076543;28;20027;-60
2024/01/23 13:11:53;;;;;;;13.00;7.72;;;;;;;;;;5075185;28;20040;-57
2024/01/23 13:14:20;;;;;;;12.18;7.13;;;;;;;;;;5074962;28;20029;-59
2024/01/23 13:16:46;;;;;;;12.50;7.53;;;;;;;;;;5076191;28;20104;-56
2024/01/23 13:19:12;;;;;;;13.80;8.23;;;;;;;;;;5076283;28;20458;-58
2024/01/23 13:21:39;;;;;;;25.52;9.77;;;;;;;;;;5075311;28;20052;-59
2024/01/23 13:24:05;;;;;;;11.52;6.75;;;;;;;;;;5076276;28;20025;-55
2024/01/23 13:26:31;;;;;;;12.82;7.25;;;;;;;;;;5075052;28;20118;-57
2024/01/23 13:28:57;;;;;;;11.40;6.60;;;;;;;;;;5072750;28;20024;-61
2024/01/23 13:31:25;;;;;;;11.43;6.70;;;;;;;;;;5075296;28;20020;-60
2024/01/23 13:33:51;;;;;;;14.48;8.73;;;;;;;;;;5074644;28;20020;-60
2024/01/23 13:36:18;;;;;;;12.00;7.50;;;;;;;;;;5075967;28;20027;-60
2024/01/23 13:38:45;;;;;;;11.68;6.90;;;;;;;;;;5075851;28;20037;-60
2024/01/23 13:41:11;;;;;;;12.85;7.15;;;;;;;;;;5074794;28;20111;-58
2024/01/23 13:43:37;;;;;;;12.38;7.28;;;;;;;;;;5071790;28;20023;-57
2024/01/23 13:46:03;;;;;;;11.52;6.72;;;;;;;;;;5072993;28;20107;-56
2024/01/23 13:48:29;;;;;;;13.10;7.72;;;;;;;;;;5073058;28;20090;-57
2024/01/23 13:50:55;;;;;;;11.82;6.93;;;;;;;;;;5072421;28;20054;-61
2024/01/23 13:53:21;;;;;;;11.57;6.82;;;;;;;;;;5072288;28;20092;-62
2024/01/23 13:55:47;;;;;;;14.88;7.60;;;;;;;;;;5072748;28;20020;-59
2024/01/23 13:58:13;;;;;;;11.82;6.90;;;;;;;;;;5051822;28;20149;-60
2024/01/23 14:00:39;;;;;;;11.63;6.90;;;;;;;;;;5071985;28;20390;-59
2024/01/23 14:03:06;;;;;;;11.10;6.50;;;;;;;;;;5070580;28;20078;-57
2024/01/23 14:05:32;;;;;;;14.23;8.07;;;;;;;;;;5072366;28;20032;-58
2024/01/23 14:07:59;;;;;;;11.65;6.85;;;;;;;;;;5072085;28;20021;-56
2024/01/23 14:10:25;;;;;;;11.32;6.68;;;;;;;;;;5071976;28;20089;-61
2024/01/23 14:12:52;;;;;;;10.85;6.35;;;;;;;;;;5068583;28;20024;-56
2024/01/23 14:15:18;;;;;;;15.57;7.85;;;;;;;;;;5045666;28;20021;-54
2024/01/23 14:17:44;;;;;;;10.80;6.40;;;;;;;;;;5071450;28;20438;-58
2024/01/23 14:20:12;;;;;;;10.57;6.20;;;;;;;;;;5071461;28;20017;-60
2024/01/23 14:22:38;;;;;;;11.07;6.43;;;;;;;;;;5070785;28;20020;-58
2024/01/23 14:25:10;;;;;;;11.20;6.60;;;;;;;;;;5071706;28;20338;-59
2024/01/23 14:27:40;;;;;;;12.10;7.20;;;;;;;;;;5071184;28;20016;-57